createdAt,value
2022-10-10T00:01:28.881Z,98571.44
2022-10-10T00:03:56.043Z,98574.88
2022-10-10T00:06:23.554Z,98568.41
2022-10-10T00:08:50.590Z,98570.69
2022-10-10T00:11:19.152Z,98568.63
2022-10-10T00:13:46.288Z,98569.44
2022-10-10T00:16:13.072Z,98571.09
2022-10-10T00:18:41.005Z,98559.59
2022-10-10T00:21:08.577Z,98562.56
2022-10-10T00:23:35.883Z,98569.31
2022-10-10T00:26:08.337Z,98569.34
2022-10-10T00:28:36.308Z,98571.91
2022-10-10T00:31:03.015Z,98561.41
2022-10-10T00:33:29.756Z,98558.50
2022-10-10T00:35:56.321Z,98557.22
2022-10-10T00:38:23.696Z,98559.53
2022-10-10T00:40:53.719Z,98558.56
2022-10-10T00:43:22.411Z,98559.06
2022-10-10T00:45:49.679Z,98553.97
2022-10-10T00:48:20.806Z,98553.31
2022-10-10T00:50:50.259Z,98546.28
2022-10-10T00:53:20.434Z,98537.22
2022-10-10T00:55:47.765Z,98518.50
2022-10-10T00:58:17.256Z,98529.69
2022-10-10T01:00:44.103Z,98486.09
2022-10-10T01:03:11.086Z,98517.34
2022-10-10T01:05:38.567Z,98515.00
2022-10-10T01:08:07.142Z,98519.72
2022-10-10T01:10:45.104Z,98509.00
2022-10-10T01:13:21.076Z,98515.66
2022-10-10T01:16:01.146Z,98507.75
2022-10-10T01:19:15.070Z,98510.22
2022-10-10T01:21:56.877Z,98504.31
2022-10-10T01:24:26.350Z,98504.75
2022-10-10T01:27:43.247Z,98489.44
2022-10-10T01:30:12.012Z,98504.19
2022-10-10T01:32:46.420Z,98500.06
2022-10-10T01:35:21.811Z,98495.03
2022-10-10T01:37:52.751Z,98491.75
2022-10-10T01:40:54.727Z,98489.78
2022-10-10T01:43:21.473Z,98483.53
2022-10-10T01:45:51.263Z,98480.91
2022-10-10T01:48:24.493Z,98480.72
2022-10-10T01:51:19.040Z,98471.53
2022-10-10T01:54:13.213Z,98471.66
2022-10-10T01:56:52.764Z,98468.91
2022-10-10T01:59:41.114Z,98466.31
2022-10-10T02:02:35.164Z,98466.00
2022-10-10T02:05:14.853Z,98461.72
2022-10-10T02:07:54.246Z,98458.44
2022-10-10T02:10:26.782Z,98467.66
2022-10-10T02:12:55.688Z,98458.66
2022-10-10T02:15:26.358Z,98447.72
2022-10-10T02:17:56.241Z,98444.53
2022-10-10T02:20:26.132Z,98449.47
2022-10-10T02:22:54.757Z,98451.44
2022-10-10T02:25:27.080Z,98438.91
2022-10-10T02:28:20.515Z,98447.78
2022-10-10T02:30:50.889Z,98435.78
2022-10-10T02:33:23.180Z,98423.28
2022-10-10T02:35:51.744Z,98427.22
2022-10-10T02:38:19.515Z,98432.97
2022-10-10T02:40:48.114Z,98430.47
2022-10-10T02:43:16.710Z,98433.97
2022-10-10T02:45:43.898Z,98436.00
2022-10-10T02:48:10.513Z,98426.84
2022-10-10T02:50:37.814Z,98415.63
2022-10-10T02:53:04.439Z,98407.91
2022-10-10T02:55:31.120Z,98420.41
2022-10-10T02:57:57.784Z,98416.31
2022-10-10T03:00:24.488Z,98414.97
2022-10-10T03:02:51.349Z,98407.53
2022-10-10T03:05:18.551Z,98417.56
2022-10-10T03:07:45.182Z,98396.63
2022-10-10T03:10:11.837Z,98406.16
2022-10-10T03:12:38.838Z,98406.47
2022-10-10T03:15:11.248Z,98389.41
2022-10-10T03:17:38.575Z,98389.75
2022-10-10T03:20:06.067Z,98354.31
2022-10-10T03:22:33.057Z,98391.72
2022-10-10T03:24:59.879Z,98385.47
2022-10-10T03:27:26.855Z,98378.06
2022-10-10T03:29:53.622Z,98381.19
2022-10-10T03:32:20.497Z,98367.94
2022-10-10T03:34:47.493Z,98385.50
2022-10-10T03:37:14.384Z,98389.78
2022-10-10T03:39:40.964Z,98392.91
2022-10-10T03:42:07.697Z,98379.63
2022-10-10T03:44:34.342Z,98381.22
2022-10-10T03:47:01.069Z,98387.44
2022-10-10T03:49:27.962Z,98382.03
2022-10-10T03:51:54.670Z,98379.63
2022-10-10T03:54:21.276Z,98377.50
2022-10-10T03:56:48.088Z,98381.22
2022-10-10T03:59:14.683Z,98381.25
2022-10-10T04:01:41.447Z,98343.19
2022-10-10T04:04:08.336Z,98375.47
2022-10-10T04:06:35.115Z,98374.91
2022-10-10T04:09:01.819Z,98365.16
2022-10-10T04:11:28.577Z,98368.78
2022-10-10T04:13:58.351Z,98375.75
2022-10-10T04:16:25.101Z,98372.78
2022-10-10T04:18:51.898Z,98387.13
2022-10-10T04:21:19.139Z,98371.75
2022-10-10T04:23:45.860Z,98371.06
2022-10-10T04:26:12.575Z,98379.53
2022-10-10T04:28:39.241Z,98369.56
2022-10-10T04:31:06.143Z,98364.69
2022-10-10T04:33:32.855Z,98362.41
2022-10-10T04:35:59.521Z,98371.66
2022-10-10T04:38:26.209Z,98340.50
2022-10-10T04:40:53.022Z,98376.78
2022-10-10T04:43:19.846Z,98368.13
2022-10-10T04:45:47.027Z,98367.16
2022-10-10T04:48:13.846Z,98361.88
2022-10-10T04:50:40.735Z,98331.72
2022-10-10T04:53:08.335Z,98348.13
2022-10-10T04:55:35.209Z,98335.34
2022-10-10T04:58:01.820Z,98377.00
2022-10-10T05:00:28.498Z,98372.22
2022-10-10T05:02:55.174Z,98363.06
2022-10-10T05:05:21.921Z,98369.44
2022-10-10T05:07:53.039Z,98365.53
2022-10-10T05:10:22.186Z,98367.00
2022-10-10T05:12:49.103Z,98364.88
2022-10-10T05:15:16.269Z,98353.41
2022-10-10T05:17:42.985Z,98365.38
2022-10-10T05:20:10.465Z,98359.00
2022-10-10T05:22:37.038Z,98367.50
2022-10-10T05:25:04.225Z,98340.63
2022-10-10T05:27:30.827Z,98359.63
2022-10-10T05:29:57.608Z,98362.75
2022-10-10T05:32:24.292Z,98362.44
2022-10-10T05:34:51.085Z,98359.81
2022-10-10T05:37:17.657Z,98354.41
2022-10-10T05:39:44.389Z,98355.41
2022-10-10T05:42:11.386Z,98321.59
2022-10-10T05:44:38.007Z,98365.22
2022-10-10T05:47:05.019Z,98366.19
2022-10-10T05:49:31.715Z,98362.94
2022-10-10T05:51:58.278Z,98357.69
2022-10-10T05:54:25.256Z,98357.06
2022-10-10T05:56:51.847Z,98353.78
2022-10-10T05:59:18.523Z,98361.31
2022-10-10T06:01:45.427Z,98351.16
2022-10-10T06:04:12.332Z,98365.06
2022-10-10T06:06:38.956Z,98361.13
2022-10-10T06:09:05.887Z,98354.09
2022-10-10T06:11:32.515Z,98361.28
2022-10-10T06:13:59.179Z,98353.25
2022-10-10T06:16:27.277Z,98339.84
2022-10-10T06:18:54.013Z,98351.47
2022-10-10T06:21:20.609Z,98350.00
2022-10-10T06:23:47.393Z,98354.13
2022-10-10T06:26:15.386Z,98356.06
2022-10-10T06:28:42.156Z,98359.34
2022-10-10T06:31:11.281Z,98359.69
2022-10-10T06:33:37.914Z,98359.16
2022-10-10T06:36:06.547Z,98361.13
2022-10-10T06:38:40.764Z,98360.13
2022-10-10T06:41:08.300Z,98371.13
2022-10-10T06:43:35.345Z,98368.31
2022-10-10T06:46:03.250Z,98364.41
2022-10-10T06:48:29.937Z,98362.72
2022-10-10T06:51:05.907Z,98370.41
2022-10-10T06:53:33.204Z,98349.75
2022-10-10T06:56:00.732Z,98349.25
2022-10-10T06:58:29.223Z,98366.13
2022-10-10T07:01:00.196Z,98359.91
2022-10-10T07:03:28.566Z,98367.75
2022-10-10T07:05:57.898Z,98358.69
2022-10-10T07:08:25.222Z,98347.28
2022-10-10T07:10:51.989Z,98331.41
2022-10-10T07:13:19.262Z,98360.97
2022-10-10T07:15:45.852Z,98363.44
2022-10-10T07:18:12.768Z,98364.41
2022-10-10T07:20:39.675Z,98347.53
2022-10-10T07:23:06.341Z,98366.41
2022-10-10T07:25:32.963Z,98357.97
2022-10-10T07:27:59.770Z,98363.94
2022-10-10T07:30:26.659Z,98333.19
2022-10-10T07:32:54.181Z,98359.97
2022-10-10T07:35:21.453Z,98366.09
2022-10-10T07:37:48.552Z,98361.28
2022-10-10T07:40:15.334Z,98339.75
2022-10-10T07:42:42.106Z,98350.47
2022-10-10T07:45:09.073Z,98320.94
2022-10-10T07:47:35.794Z,98354.81
2022-10-10T07:50:02.431Z,98352.00
2022-10-10T07:52:29.143Z,98365.47
2022-10-10T07:54:55.736Z,98360.91
2022-10-10T07:57:22.462Z,98360.53
2022-10-10T07:59:49.161Z,98361.97
2022-10-10T08:02:15.919Z,98364.38
2022-10-10T08:04:42.620Z,98364.97
2022-10-10T08:07:09.534Z,98360.72
2022-10-10T08:09:36.126Z,98360.66
2022-10-10T08:12:02.848Z,98364.94
2022-10-10T08:14:29.442Z,98328.53
2022-10-10T08:16:56.124Z,98362.47
2022-10-10T08:19:22.742Z,98352.69
2022-10-10T08:21:49.412Z,98348.38
2022-10-10T08:24:16.079Z,98355.47
2022-10-10T08:26:42.787Z,98351.47
2022-10-10T08:29:09.428Z,98345.81
2022-10-10T08:31:36.246Z,98343.41
2022-10-10T08:34:02.963Z,98306.81
2022-10-10T08:36:29.615Z,98338.84
2022-10-10T08:38:56.377Z,98340.50
2022-10-10T08:41:31.792Z,98329.75
2022-10-10T08:44:01.886Z,98336.50
2022-10-10T08:46:57.552Z,98342.69
2022-10-10T08:49:24.203Z,98339.06
2022-10-10T08:52:06.928Z,98340.69
2022-10-10T08:54:36.775Z,98347.66
2022-10-10T08:57:06.536Z,98331.81
2022-10-10T08:59:39.848Z,98339.94
2022-10-10T09:02:43.724Z,98336.69
2022-10-10T09:05:19.704Z,98338.91
2022-10-10T09:08:26.780Z,98330.16
2022-10-10T09:11:37.591Z,98330.50
2022-10-10T09:14:17.353Z,98333.34
2022-10-10T09:17:10.598Z,98336.03
2022-10-10T09:20:06.844Z,98329.66
2022-10-10T09:22:42.600Z,98344.09
2022-10-10T09:25:20.905Z,98334.41
2022-10-10T09:27:58.850Z,98338.66
2022-10-10T09:30:27.752Z,98339.41
2022-10-10T09:33:01.994Z,98331.19
2022-10-10T09:35:32.268Z,98336.84
2022-10-10T09:38:10.784Z,98347.31
2022-10-10T09:40:43.725Z,98328.66
2022-10-10T09:43:15.329Z,98337.25
2022-10-10T09:45:47.393Z,98332.88
2022-10-10T09:48:14.304Z,98337.25
2022-10-10T09:50:43.773Z,98333.16
2022-10-10T09:53:16.287Z,98320.94
2022-10-10T09:55:45.783Z,98321.22
2022-10-10T09:58:21.673Z,98322.88
2022-10-10T10:00:48.665Z,98319.91
2022-10-10T10:03:18.273Z,98313.28
2022-10-10T10:05:54.923Z,98317.94
2022-10-10T10:08:36.439Z,98320.72
2022-10-10T10:11:04.873Z,98325.28
2022-10-10T10:13:36.899Z,98296.00
2022-10-10T10:16:12.691Z,98322.81
2022-10-10T10:18:44.477Z,98328.59
2022-10-10T10:21:16.523Z,98337.41
2022-10-10T10:23:48.824Z,98328.97
2022-10-10T10:26:18.358Z,98324.66
2022-10-10T10:28:46.273Z,98327.13
2022-10-10T10:31:24.582Z,98320.47
2022-10-10T10:34:06.943Z,98326.50
2022-10-10T10:36:42.403Z,98317.91
2022-10-10T10:39:27.675Z,98327.91
2022-10-10T10:42:24.815Z,98316.75
2022-10-10T10:45:23.485Z,98320.59
2022-10-10T10:47:56.067Z,98324.06
2022-10-10T10:50:40.029Z,98318.72
2022-10-10T10:53:31.833Z,98311.06
2022-10-10T10:59:39.025Z,98308.53
2022-10-10T11:02:08.951Z,98303.56
2022-10-10T11:05:17.217Z,98307.59
2022-10-10T11:07:38.382Z,98291.38
2022-10-10T11:10:07.952Z,98303.78
2022-10-10T11:12:50.671Z,98298.56
2022-10-10T11:16:04.928Z,98298.44
2022-10-10T11:18:33.224Z,98293.72
2022-10-10T11:21:09.201Z,98257.72
2022-10-10T11:23:53.479Z,98290.69
2022-10-10T11:26:42.307Z,98293.00
2022-10-10T11:29:36.842Z,98291.00
2022-10-10T11:32:23.156Z,98275.59
2022-10-10T11:35:06.831Z,98270.59
2022-10-10T11:37:40.060Z,98229.91
2022-10-10T11:40:23.786Z,98233.28
2022-10-10T11:42:57.165Z,98269.81
2022-10-10T11:45:43.604Z,98231.31
2022-10-10T11:48:25.656Z,98267.44
2022-10-10T11:51:06.113Z,98262.59
2022-10-10T11:53:43.658Z,98270.84
2022-10-10T11:56:17.971Z,98256.56
2022-10-10T11:58:51.179Z,98277.97
2022-10-10T12:01:25.497Z,98278.72
2022-10-10T12:03:52.402Z,98261.56
2022-10-10T12:06:42.306Z,98268.38
2022-10-10T12:09:30.205Z,98269.19
2022-10-10T12:12:02.839Z,98261.84
2022-10-10T12:14:31.366Z,98255.31
2022-10-10T12:16:58.930Z,98265.56
2022-10-10T12:19:28.216Z,98250.34
2022-10-10T12:22:01.557Z,98248.28
2022-10-10T12:24:31.387Z,98250.22
2022-10-10T12:26:58.224Z,98246.06
2022-10-10T12:29:51.045Z,98256.03
2022-10-10T12:32:21.090Z,98242.91
2022-10-10T12:34:50.712Z,98247.19
2022-10-10T12:37:22.331Z,98236.56
2022-10-10T12:40:07.955Z,98242.59
2022-10-10T12:43:00.982Z,98243.50
2022-10-10T12:45:30.804Z,98249.00
2022-10-10T12:48:06.063Z,98247.69
2022-10-10T12:50:40.389Z,98246.97
2022-10-10T12:53:18.757Z,98247.13
2022-10-10T12:55:47.891Z,98246.97
2022-10-10T12:58:27.542Z,98248.72
2022-10-10T13:01:09.224Z,98247.53
2022-10-10T13:03:47.719Z,98234.00
2022-10-10T13:06:33.658Z,98243.25
2022-10-10T13:09:02.846Z,98236.56
2022-10-10T13:11:29.604Z,98234.66
2022-10-10T13:13:57.779Z,98236.59
2022-10-10T13:16:32.822Z,98224.53
2022-10-10T13:19:01.269Z,98206.09
2022-10-10T13:21:33.731Z,98221.53
2022-10-10T13:24:04.291Z,98223.81
2022-10-10T13:26:32.891Z,98229.31
2022-10-10T13:29:05.066Z,98234.28
2022-10-10T13:31:31.922Z,98229.31
2022-10-10T13:34:02.411Z,98235.22
2022-10-10T13:36:31.166Z,98241.69
2022-10-10T13:38:58.543Z,98243.72
2022-10-10T13:41:27.367Z,98209.16
2022-10-10T13:43:54.676Z,98245.44
2022-10-10T13:46:23.982Z,98249.53
2022-10-10T13:48:50.651Z,98253.84
2022-10-10T13:51:17.642Z,98256.31
2022-10-10T13:53:47.292Z,98255.28
2022-10-10T13:56:30.340Z,98264.00
2022-10-10T13:59:04.667Z,98254.69
2022-10-10T14:01:31.434Z,98259.50
2022-10-10T14:04:07.846Z,98256.88
2022-10-10T14:06:35.399Z,98247.94
2022-10-10T14:09:34.517Z,98250.84
2022-10-10T14:12:04.201Z,98248.34
2022-10-10T14:14:40.439Z,98259.19
2022-10-10T14:17:10.345Z,98246.16
2022-10-10T14:19:37.462Z,98261.56
2022-10-10T14:22:04.484Z,98250.97
2022-10-10T14:24:31.350Z,98255.16
2022-10-10T14:27:04.655Z,98253.84
2022-10-10T14:29:31.441Z,98260.66
2022-10-10T14:31:58.080Z,98240.09
2022-10-10T14:34:24.821Z,98234.34
2022-10-10T14:36:51.505Z,98267.00
2022-10-10T14:39:19.497Z,98225.84
2022-10-10T14:41:46.510Z,98267.09
2022-10-10T14:44:13.861Z,98264.50
2022-10-10T14:46:41.655Z,98270.22
2022-10-10T14:49:19.453Z,98267.91
2022-10-10T14:51:47.035Z,98264.28
2022-10-10T14:54:14.510Z,98218.03
2022-10-10T14:57:07.411Z,98252.81
2022-10-10T14:59:46.199Z,98235.28
2022-10-10T15:02:18.034Z,98260.31
2022-10-10T15:04:44.643Z,98258.25
2022-10-10T15:07:14.358Z,98252.38
2022-10-10T15:09:56.556Z,98268.94
2022-10-10T15:12:29.879Z,98253.16
2022-10-10T15:14:56.491Z,98276.91
2022-10-10T15:17:23.369Z,98275.69
2022-10-10T15:19:49.935Z,98277.69
2022-10-10T15:22:16.982Z,98269.63
2022-10-10T15:24:43.687Z,98258.94
2022-10-10T15:27:10.299Z,98273.25
2022-10-10T15:29:38.952Z,98272.38
2022-10-10T15:32:05.871Z,98278.06
2022-10-10T15:34:32.502Z,98255.03
2022-10-10T15:36:59.282Z,98283.22
2022-10-10T15:39:25.898Z,98267.91
2022-10-10T15:41:52.623Z,98276.81
2022-10-10T15:44:19.592Z,98285.44
2022-10-10T15:46:46.319Z,98291.72
2022-10-10T15:49:13.457Z,98295.66
2022-10-10T15:51:44.706Z,98294.88
2022-10-10T15:54:11.928Z,98307.75
2022-10-10T15:56:39.181Z,98303.78
2022-10-10T15:59:06.537Z,98311.34
2022-10-10T16:01:33.163Z,98309.13
2022-10-10T16:04:02.853Z,98309.00
2022-10-10T16:06:30.305Z,98196.47
2022-10-10T16:09:16.277Z,98309.25
2022-10-10T16:11:44.167Z,98307.03
2022-10-10T16:14:11.187Z,98272.38
2022-10-10T16:16:38.246Z,98308.53
2022-10-10T16:19:05.240Z,98313.59
2022-10-10T16:21:32.151Z,98312.44
2022-10-10T16:23:59.603Z,98302.81
2022-10-10T16:26:30.236Z,98324.31
2022-10-10T16:28:57.679Z,98333.06
2022-10-10T16:31:24.796Z,98332.25
2022-10-10T16:33:52.239Z,98331.34
2022-10-10T16:36:25.967Z,98341.22
2022-10-10T16:38:54.756Z,98348.94
2022-10-10T16:41:42.884Z,98351.38
2022-10-10T16:44:09.922Z,98354.81
2022-10-10T16:46:36.480Z,98353.75
2022-10-10T16:49:03.183Z,98367.34
2022-10-10T16:51:30.111Z,98343.47
2022-10-10T16:54:00.405Z,98361.94
2022-10-10T16:56:27.462Z,98365.41
2022-10-10T16:58:54.155Z,98368.50
2022-10-10T17:01:22.914Z,98369.72
2022-10-10T17:03:51.049Z,98368.59
2022-10-10T17:06:20.682Z,98375.63
2022-10-10T17:08:52.680Z,98381.13
2022-10-10T17:11:21.196Z,98385.84
2022-10-10T17:13:48.587Z,98391.66
2022-10-10T17:19:05.392Z,98395.94
2022-10-10T17:21:32.047Z,98404.22
2022-10-10T17:23:59.314Z,98406.63
2022-10-10T17:26:26.567Z,98418.88
2022-10-10T17:28:55.610Z,98410.72
2022-10-10T17:31:22.852Z,98410.50
2022-10-10T17:33:53.529Z,98419.97
2022-10-10T17:36:23.585Z,98413.41
2022-10-10T17:38:50.276Z,98420.66
2022-10-10T17:41:18.243Z,98429.16
2022-10-10T17:43:45.528Z,98427.59
2022-10-10T17:46:33.947Z,98426.16
2022-10-10T17:49:03.046Z,98424.19
2022-10-10T17:51:29.684Z,98432.63
2022-10-10T17:53:59.764Z,98427.56
2022-10-10T17:56:26.487Z,98423.94
2022-10-10T17:58:53.354Z,98432.56
2022-10-10T18:01:20.716Z,98437.88
2022-10-10T18:03:48.202Z,98433.50
2022-10-10T18:06:18.210Z,98448.66
2022-10-10T18:08:47.235Z,98446.66
2022-10-10T18:11:15.994Z,98448.19
2022-10-10T18:13:42.840Z,98444.22
2022-10-10T18:16:14.463Z,98454.31
2022-10-10T18:18:45.660Z,98458.19
2022-10-10T18:21:16.327Z,98455.25
2022-10-10T18:23:42.964Z,98460.75
2022-10-10T18:26:19.195Z,98462.81
2022-10-10T18:28:46.581Z,98473.53
2022-10-10T18:31:21.693Z,98478.25
2022-10-10T18:33:48.809Z,98442.81
2022-10-10T18:36:18.805Z,98482.19
2022-10-10T18:38:46.058Z,98486.44
2022-10-10T18:41:15.344Z,98485.22
2022-10-10T18:43:42.507Z,98487.25
2022-10-10T18:46:12.301Z,98480.06
2022-10-10T18:48:39.355Z,98484.56
2022-10-10T18:51:12.572Z,98490.28
2022-10-10T18:53:41.950Z,98481.47
2022-10-10T18:56:09.221Z,98493.09
2022-10-10T18:58:36.773Z,98491.41
2022-10-10T19:01:08.151Z,98496.72
2022-10-10T19:03:36.808Z,98506.94
2022-10-10T19:06:04.871Z,98498.53
2022-10-10T19:08:31.565Z,98485.91
2022-10-10T19:10:58.259Z,98495.28
2022-10-10T19:13:25.101Z,98500.19
2022-10-10T19:15:51.855Z,98468.16
2022-10-10T19:18:19.752Z,98511.03
2022-10-10T19:20:46.881Z,98501.19
2022-10-10T19:23:14.595Z,98501.00
2022-10-10T19:25:43.015Z,98513.47
2022-10-10T19:28:09.798Z,98495.88
2022-10-10T19:30:41.416Z,98509.81
2022-10-10T19:33:09.287Z,98517.13
2022-10-10T19:35:40.901Z,98518.38
2022-10-10T19:38:10.065Z,98522.06
2022-10-10T19:40:43.635Z,98518.38
2022-10-10T19:43:10.500Z,98514.16
2022-10-10T19:45:48.496Z,98527.41
2022-10-10T19:48:16.081Z,98533.97
2022-10-10T19:50:44.294Z,98534.97
2022-10-10T19:53:14.434Z,98538.06
2022-10-10T19:55:41.482Z,98537.22
2022-10-10T19:58:08.258Z,98539.69
2022-10-10T20:00:37.108Z,98512.16
2022-10-10T20:03:03.936Z,98546.22
2022-10-10T20:05:30.618Z,98551.53
2022-10-10T20:07:57.326Z,98560.53
2022-10-10T20:10:23.984Z,98563.78
2022-10-10T20:12:50.621Z,98565.63
2022-10-10T20:15:17.278Z,98563.78
2022-10-10T20:17:44.263Z,98570.94
2022-10-10T20:20:10.956Z,98548.53
2022-10-10T20:22:38.355Z,98543.47
2022-10-10T20:25:06.459Z,98587.75
2022-10-10T20:27:34.130Z,98596.31
2022-10-10T20:30:00.733Z,98605.16
2022-10-10T20:32:27.432Z,98608.00
2022-10-10T20:34:54.021Z,98606.13
2022-10-10T20:37:20.736Z,98596.75
2022-10-10T20:39:47.442Z,98570.59
2022-10-10T20:42:14.079Z,98610.66
2022-10-10T20:44:40.674Z,98615.56
2022-10-10T20:47:07.455Z,98618.63
2022-10-10T20:49:34.070Z,98626.16
2022-10-10T20:52:00.662Z,98627.19
2022-10-10T20:54:27.430Z,98627.38
2022-10-10T20:56:54.086Z,98638.63
2022-10-10T20:59:21.010Z,98639.22
2022-10-10T21:01:47.868Z,98636.19
2022-10-10T21:04:14.920Z,98639.03
2022-10-10T21:06:42.249Z,98641.28
2022-10-10T21:09:10.719Z,98642.91
2022-10-10T21:11:37.842Z,98653.75
2022-10-10T21:14:04.515Z,98660.69
2022-10-10T21:16:37.370Z,98640.25
2022-10-10T21:19:05.479Z,98670.50
2022-10-10T21:21:33.227Z,98678.47
2022-10-10T21:24:00.877Z,98638.22
2022-10-10T21:26:29.011Z,98639.88
2022-10-10T21:28:57.464Z,98680.69
2022-10-10T21:31:34.221Z,98687.03
2022-10-10T21:34:02.919Z,98684.38
2022-10-10T21:36:30.510Z,98692.13
2022-10-10T21:38:58.623Z,98693.78
2022-10-10T21:41:25.636Z,98704.41
2022-10-10T21:43:55.765Z,98689.09
2022-10-10T21:46:25.693Z,98695.00
2022-10-10T21:48:52.548Z,98707.06
2022-10-10T21:51:20.172Z,98707.25
2022-10-10T21:53:47.995Z,98706.03
2022-10-10T21:56:15.270Z,98709.28
2022-10-10T21:58:43.678Z,98711.09
2022-10-10T22:01:15.894Z,98711.56
2022-10-10T22:03:44.155Z,98713.16
2022-10-10T22:06:13.980Z,98718.69
2022-10-10T22:08:41.959Z,98713.34
2022-10-10T22:11:15.205Z,98728.25
2022-10-10T22:13:42.017Z,98720.91
2022-10-10T22:16:09.659Z,98703.28
2022-10-10T22:18:37.934Z,98749.06
2022-10-10T22:21:07.404Z,98745.41
2022-10-10T22:23:34.103Z,98749.88
2022-10-10T22:26:00.889Z,98750.50
2022-10-10T22:28:27.778Z,98751.53
2022-10-10T22:30:54.531Z,98747.66
2022-10-10T22:33:21.253Z,98757.47
2022-10-10T22:35:47.833Z,98756.63
2022-10-10T22:38:14.552Z,98760.50
2022-10-10T22:40:41.147Z,98758.81
2022-10-10T22:43:07.903Z,98760.25
2022-10-10T22:45:34.637Z,98767.63
2022-10-10T22:48:01.286Z,98757.91
2022-10-10T22:50:27.938Z,98774.97
2022-10-10T22:52:54.662Z,98769.50
2022-10-10T22:55:21.253Z,98769.94
2022-10-10T22:57:47.941Z,98773.25
2022-10-10T23:00:15.744Z,98770.38
2022-10-10T23:02:42.421Z,98775.66
2022-10-10T23:05:09.352Z,98780.06
2022-10-10T23:07:36.054Z,98784.56
2022-10-10T23:10:02.874Z,98776.41
2022-10-10T23:12:29.607Z,98789.84
2022-10-10T23:14:56.245Z,98791.44
2022-10-10T23:17:22.979Z,98786.53
2022-10-10T23:19:49.560Z,98789.13
2022-10-10T23:22:16.314Z,98795.94
2022-10-10T23:24:42.929Z,98794.47
2022-10-10T23:27:09.595Z,98796.13
2022-10-10T23:29:36.235Z,98797.16
2022-10-10T23:32:02.929Z,98804.97
2022-10-10T23:34:29.529Z,98765.88
2022-10-10T23:36:56.423Z,98806.97
2022-10-10T23:39:22.997Z,98804.91
2022-10-10T23:41:49.659Z,98804.88
2022-10-10T23:44:16.276Z,98812.19
2022-10-10T23:46:42.924Z,98821.75
2022-10-10T23:49:10.095Z,98824.03
2022-10-10T23:51:36.958Z,98832.44
2022-10-10T23:54:03.660Z,98842.09
2022-10-10T23:56:30.449Z,98848.75
2022-10-10T23:58:57.254Z,98850.34
